Time;durP1;ratioP1;P1;durP2;ratioP2;P2;SDS_P1;SDS_P2;PMS_P1;PMS_P2;Temp;Humidity;BMP_temperature;BMP_pressure;BME280_temperature;BME280_humidity;BME280_pressure;Samples;Min_cycle;Max_cycle;Signal;HPM_P1;HPM_P2
2021/10/25 00:01:39;;;;;;;57.67;26.55;;;;;;;2.70;72.76;101345.62;2166534;80;30078;-59
2021/10/25 00:04:41;;;;;;;56.65;24.37;;;;;;;2.71;72.95;101345.16;2178722;80;32053;-57
2021/10/25 00:07:44;;;;;;;61.77;27.95;;;;;;;2.70;73.05;101344.72;2177869;80;33898;-59
2021/10/25 00:10:47;;;;;;;68.97;28.57;;;;;;;2.71;73.14;101340.77;2170019;81;30465;-59
2021/10/25 00:13:49;;;;;;;61.02;29.07;;;;;;;2.70;73.09;101339.00;2174036;80;27676;-59
2021/10/25 00:16:51;;;;;;;66.87;30.72;;;;;;;2.70;73.23;101339.00;2186906;80;29957;-59
2021/10/25 00:19:54;;;;;;;63.60;30.25;;;;;;;2.70;73.14;101339.42;2174375;80;32410;-58
2021/10/25 00:22:58;;;;;;;62.45;29.90;;;;;;;2.71;73.37;101341.19;2171755;80;34328;-60
2021/10/25 00:26:00;;;;;;;74.67;31.85;;;;;;;2.68;73.46;101344.73;2178178;80;29686;-63
2021/10/25 00:29:03;;;;;;;78.80;32.73;;;;;;;2.68;73.16;101324.89;2184624;80;27743;-63
2021/10/25 00:32:05;;;;;;;67.60;32.98;;;;;;;2.68;73.26;101334.57;2165773;80;28651;-63
2021/10/25 00:35:08;;;;;;;67.67;32.42;;;;;;;2.65;73.24;101324.88;2189124;80;30464;-66
2021/10/25 00:38:11;;;;;;;71.12;34.58;;;;;;;2.65;73.39;101322.69;2188827;80;33748;-64
2021/10/25 00:41:14;;;;;;;77.75;34.30;;;;;;;2.64;73.39;101324.90;2184136;80;30222;-65
2021/10/25 00:44:16;;;;;;;72.20;33.20;;;;;;;2.64;73.43;101332.83;2189246;80;27775;-65
2021/10/25 00:47:17;;;;;;;65.55;32.95;;;;;;;2.63;73.45;101332.39;2166836;80;28676;-66
2021/10/25 00:50:19;;;;;;;66.55;33.05;;;;;;;2.61;73.53;101328.86;2175054;80;31017;-65
2021/10/25 00:53:21;;;;;;;66.53;33.45;;;;;;;2.58;73.72;101321.78;2182620;80;32807;-65
2021/10/25 00:56:23;;;;;;;74.10;34.40;;;;;;;2.53;73.57;101328.41;2181906;80;29702;-65
2021/10/25 00:59:25;;;;;;;70.15;33.53;;;;;;;2.49;73.61;101323.98;2183641;80;27776;-63
2021/10/25 01:02:27;;;;;;;70.75;34.15;;;;;;;2.46;73.52;101316.50;2185358;80;29104;-62
2021/10/25 01:05:30;;;;;;;78.45;34.05;;;;;;;2.41;73.60;101317.83;2144109;80;31990;-63
2021/10/25 01:08:39;;;;;;;74.97;32.90;;;;;;;2.40;73.56;101322.22;2175899;80;33972;-63
2021/10/25 01:11:44;;;;;;;62.25;31.00;;;;;;;2.38;73.75;101321.36;2175880;80;29323;-57
2021/10/25 01:14:46;;;;;;;69.03;33.23;;;;;;;2.34;73.87;101312.08;2175185;80;27629;-61
2021/10/25 01:17:57;;;;;;;68.67;32.28;;;;;;;2.30;73.79;101307.23;2189658;80;29052;-63
2021/10/25 01:21:00;;;;;;;70.60;31.85;;;;;;;2.29;73.87;101308.11;2175523;80;31039;-63
2021/10/25 01:24:01;;;;;;;67.92;31.55;;;;;;;2.27;73.72;101297.97;2168414;81;33361;-64
2021/10/25 01:27:04;;;;;;;63.17;29.82;;;;;;;2.23;73.89;101305.03;2160327;81;29698;-58
2021/10/25 01:30:07;;;;;;;61.35;30.55;;;;;;;2.22;73.88;101305.05;2166340;80;27631;-58
2021/10/25 01:33:17;;;;;;;65.92;30.65;;;;;;;2.17;73.83;101296.22;2183191;80;28671;-58
2021/10/25 01:36:20;;;;;;;68.22;32.48;;;;;;;2.15;73.70;101288.30;2179583;80;31034;-58
2021/10/25 01:39:22;;;;;;;67.80;29.63;;;;;;;2.10;73.73;101284.30;2194262;80;33055;-59
2021/10/25 01:42:24;;;;;;;69.15;30.82;;;;;;;2.07;73.80;101275.49;2193265;80;29911;-58
2021/10/25 01:45:27;;;;;;;60.67;30.50;;;;;;;2.06;73.65;101279.02;2177669;80;27729;-58
2021/10/25 01:48:28;;;;;;;64.90;30.57;;;;;;;2.04;73.77;101282.09;2174112;81;28830;-58
2021/10/25 01:51:30;;;;;;;59.15;27.80;;;;;;;2.02;73.69;101280.78;2172206;80;31808;-58
2021/10/25 01:54:32;;;;;;;62.13;28.35;;;;;;;2.00;73.91;101277.67;2187848;80;34073;-58
2021/10/25 01:57:35;;;;;;;55.03;26.62;;;;;;;1.99;73.88;101266.69;2170457;80;29143;-58
2021/10/25 02:00:37;;;;;;;61.20;29.02;;;;;;;1.97;73.94;101262.70;2168308;80;27580;-58
2021/10/25 02:03:39;;;;;;;55.95;28.15;;;;;;;1.94;73.82;101257.41;2151861;82;28729;-58
2021/10/25 02:06:41;;;;;;;61.35;28.27;;;;;;;1.93;73.84;101253.89;2146115;82;31901;-58
2021/10/25 02:09:43;;;;;;;51.50;26.35;;;;;;;1.91;73.80;101257.39;2151740;81;33508;-58
2021/10/25 02:12:45;;;;;;;56.40;27.17;;;;;;;1.88;73.75;101243.75;2142871;82;30558;-58
2021/10/25 02:15:47;;;;;;;55.25;27.05;;;;;;;1.87;73.67;101243.30;2139909;82;27677;-58
2021/10/25 02:18:49;;;;;;;56.63;28.10;;;;;;;1.86;73.86;101234.94;2128889;82;29069;-58
2021/10/25 02:21:50;;;;;;;60.95;26.70;;;;;;;1.85;73.88;101230.98;2164318;82;30593;-58
2021/10/25 02:24:53;;;;;;;53.10;25.95;;;;;;;1.82;73.77;101222.17;2144626;82;33817;-58
2021/10/25 02:27:55;;;;;;;49.93;25.37;;;;;;;1.80;73.85;101227.89;2157584;82;30179;-58
2021/10/25 02:30:58;;;;;;;62.20;26.55;;;;;;;1.78;73.78;101224.36;2155549;82;27671;-58
2021/10/25 02:34:00;;;;;;;57.50;26.12;;;;;;;1.76;73.85;101226.11;2148362;81;28670;-58
2021/10/25 02:37:04;;;;;;;53.23;24.80;;;;;;;1.76;73.81;101226.56;2157703;82;32324;-58
2021/10/25 02:40:07;;;;;;;51.40;24.18;;;;;;;1.75;74.01;101226.13;2151074;82;33759;-57
2021/10/25 02:43:11;;;;;;;54.25;25.05;;;;;;;1.75;73.87;101226.98;2131678;82;30268;-58
2021/10/25 02:46:13;;;;;;;53.90;24.27;;;;;;;1.73;74.00;101223.91;2147256;82;27677;-59
2021/10/25 02:49:15;;;;;;;53.48;25.57;;;;;;;1.73;73.99;101223.91;2148552;82;29883;-59
2021/10/25 02:52:18;;;;;;;46.02;22.95;;;;;;;1.72;73.96;101219.50;2149839;82;31424;-58
2021/10/25 02:55:19;;;;;;;46.00;24.32;;;;;;;1.72;74.01;101223.47;2143080;82;33550;-58
2021/10/25 02:58:22;;;;;;;52.30;24.52;;;;;;;1.70;73.92;101219.52;2143440;82;30305;-58
2021/10/25 03:01:23;;;;;;;44.27;21.25;;;;;;;1.71;73.89;101215.09;2159290;80;27659;-59
2021/10/25 03:04:26;;;;;;;44.48;21.27;;;;;;;1.70;74.06;101214.23;2159895;81;30036;-59
2021/10/25 03:07:28;;;;;;;47.60;21.70;;;;;;;1.69;73.97;101211.15;2158800;82;32370;-58
2021/10/25 03:10:30;;;;;;;45.35;20.75;;;;;;;1.69;73.95;101204.97;2158465;82;33867;-58
2021/10/25 03:13:32;;;;;;;42.55;19.92;;;;;;;1.69;73.90;101202.33;2161854;81;30498;-58
2021/10/25 03:16:34;;;;;;;50.40;21.33;;;;;;;1.68;73.98;101209.38;2158939;82;27717;-58
2021/10/25 03:19:36;;;;;;;42.08;19.90;;;;;;;1.67;73.88;101202.34;2158988;82;29833;-59
2021/10/25 03:22:39;;;;;;;40.15;20.23;;;;;;;1.67;73.87;101204.52;2155579;81;32124;-59
2021/10/25 03:25:41;;;;;;;47.08;19.57;;;;;;;1.66;74.04;101196.16;2161016;82;32928;-59
2021/10/25 03:28:44;;;;;;;37.90;16.97;;;;;;;1.69;73.87;101195.72;2159391;81;30507;-62
2021/10/25 03:31:46;;;;;;;32.65;16.35;;;;;;;1.68;74.08;101192.21;2156511;81;27688;-62
2021/10/25 03:34:49;;;;;;;38.67;17.60;;;;;;;1.71;74.09;101196.61;2159096;81;28749;-62
2021/10/25 03:37:51;;;;;;;34.75;17.50;;;;;;;1.72;74.04;101195.73;2158809;82;31920;-63
2021/10/25 03:40:54;;;;;;;35.00;17.15;;;;;;;1.72;73.92;101191.34;2160594;81;33329;-60
2021/10/25 03:44:08;;;;;;;35.73;16.57;;;;;;;1.73;73.92;101192.21;2159214;82;29116;-60
2021/10/25 03:47:08;;;;;;;40.98;17.57;;;;;;;1.73;73.89;101180.33;2157500;82;27657;-60
2021/10/25 03:50:14;;;;;;;35.48;17.27;;;;;;;1.72;73.87;101179.88;2159343;82;29035;-59
2021/10/25 03:53:20;;;;;;;36.05;16.30;;;;;;;1.70;73.80;101177.67;2162787;81;31079;-59
2021/10/25 03:56:27;;;;;;;47.05;17.07;;;;;;;1.69;73.84;101169.30;2163518;81;34240;-61
2021/10/25 04:02:53;;;;;;;30.40;15.98;;;;;;;1.68;73.83;101160.52;2170406;80;28248;-59
2021/10/25 04:29:01;;;;;;;39.23;18.37;;;;;;;1.57;73.71;101153.90;2190021;79;33388;-62
2021/10/25 04:32:07;;;;;;;39.23;17.00;;;;;;;1.57;73.76;101152.58;2220100;79;30407;-62
2021/10/25 04:35:08;;;;;;;27.90;12.00;;;;;;;1.56;73.68;101152.13;2216379;79;27624;-60
2021/10/25 04:38:10;;;;;;;38.60;16.20;;;;;;;1.57;73.66;101153.03;2206447;79;29751;-59
2021/10/25 04:41:12;;;;;;;36.80;17.27;;;;;;;1.56;73.60;101146.85;2216121;79;32221;-60
2021/10/25 04:44:14;;;;;;;31.23;15.43;;;;;;;1.55;73.59;101141.58;2220554;79;34632;-61
2021/10/25 04:47:16;;;;;;;37.70;15.83;;;;;;;1.51;73.74;101139.35;2218832;79;30469;-62
2021/10/25 04:50:17;;;;;;;28.12;13.83;;;;;;;1.50;73.74;101142.45;2226920;79;27752;-62
2021/10/25 04:53:19;;;;;;;32.03;14.83;;;;;;;1.51;73.89;101140.25;2221261;79;29958;-63
2021/10/25 04:56:21;;;;;;;31.05;14.70;;;;;;;1.51;73.79;101140.25;2217742;79;31484;-63
2021/10/25 04:59:23;;;;;;;28.87;15.25;;;;;;;1.51;73.83;101140.25;2203595;79;34132;-59
2021/10/25 05:02:25;;;;;;;35.33;14.85;;;;;;;1.53;73.78;101136.28;2206284;80;29883;-64
2021/10/25 05:05:28;;;;;;;29.00;13.10;;;;;;;1.54;73.82;101134.08;2198544;80;27671;-61
2021/10/25 05:08:30;;;;;;;24.23;12.13;;;;;;;1.55;73.77;101133.66;2204089;79;28400;-62
2021/10/25 05:11:33;;;;;;;29.77;15.08;;;;;;;1.55;73.83;101134.98;2210196;80;32177;-62
2021/10/25 05:14:35;;;;;;;37.90;15.13;;;;;;;1.56;73.85;101137.61;2203043;80;33861;-62
2021/10/25 05:17:36;;;;;;;28.05;14.25;;;;;;;1.56;73.80;101132.78;2205688;79;29642;-61
2021/10/25 05:20:38;;;;;;;25.88;12.53;;;;;;;1.54;73.81;101134.54;2210756;80;27681;-59
2021/10/25 05:23:40;;;;;;;27.35;12.20;;;;;;;1.54;73.74;101131.90;2199246;80;29843;-61
2021/10/25 05:26:42;;;;;;;31.87;11.05;;;;;;;1.53;73.70;101127.03;2185175;80;31379;-59
2021/10/25 05:29:44;;;;;;;23.25;11.40;;;;;;;1.55;73.74;101124.42;2208561;80;34141;-60
2021/10/25 05:32:46;;;;;;;22.75;10.82;;;;;;;1.57;73.87;101118.25;2206509;79;30423;-59
2021/10/25 05:35:48;;;;;;;20.30;10.70;;;;;;;1.60;73.90;101118.67;2205224;80;27679;-61
2021/10/25 05:38:51;;;;;;;20.88;9.50;;;;;;;1.62;73.86;101116.50;2198816;80;30073;-62
2021/10/25 05:41:52;;;;;;;25.68;10.65;;;;;;;1.66;73.87;101113.41;2202341;80;31646;-60
2021/10/25 05:44:55;;;;;;;19.12;9.65;;;;;;;1.67;73.73;101116.03;2202551;79;33291;-60
2021/10/25 05:47:57;;;;;;;25.60;12.05;;;;;;;1.69;73.71;101116.48;2200424;80;30509;-60
2021/10/25 05:51:01;;;;;;;19.62;10.43;;;;;;;1.61;73.67;101095.35;2211951;80;27617;-62
2021/10/25 05:54:05;;;;;;;14.15;8.73;;;;;;;1.70;73.75;101105.94;2208987;80;31670;-59
2021/10/25 05:57:07;;;;;;;19.52;10.08;;;;;;;1.71;73.66;101106.80;2213689;79;31330;-60
2021/10/25 06:00:12;;;;;;;30.90;11.60;;;;;;;1.72;73.73;101105.50;2202745;79;33365;-59
2021/10/25 06:03:20;;;;;;;20.45;9.70;;;;;;;1.74;73.67;101095.78;2212783;80;30430;-61
2021/10/25 06:06:21;;;;;;;17.82;9.38;;;;;;;1.80;73.74;101094.47;2204161;79;27541;-61
2021/10/25 06:09:24;;;;;;;19.40;8.78;;;;;;;1.88;73.77;101095.78;2209458;79;29868;-63
2021/10/25 06:12:26;;;;;;;18.37;10.05;;;;;;;1.98;73.77;101097.98;2201806;79;32094;-63
2021/10/25 06:15:36;;;;;;;20.17;9.33;;;;;;;2.09;73.63;101086.94;2209259;79;33828;-61
2021/10/25 06:18:32;;;;;;;24.45;8.85;;;;;;;2.20;73.53;101087.38;2211980;79;29110;-62
2021/10/25 06:21:35;;;;;;;21.75;9.00;;;;;;;2.32;73.44;101093.09;2201851;79;27584;-62
2021/10/25 06:24:37;;;;;;;24.82;8.43;;;;;;;2.48;73.28;101090.84;2199331;80;28659;-63
2021/10/25 06:27:41;;;;;;;22.15;8.48;;;;;;;2.67;73.10;101085.45;2194345;80;32025;-62
2021/10/25 06:30:54;;;;;;;21.45;9.70;;;;;;;2.84;72.97;101091.55;2190391;81;32967;-63
2021/10/25 06:33:51;;;;;;;23.10;9.58;;;;;;;3.03;72.72;101095.42;2204272;80;30220;-63
2021/10/25 06:36:53;;;;;;;24.05;9.65;;;;;;;3.27;72.44;101095.72;2209248;79;27678;-62
2021/10/25 06:39:56;;;;;;;21.05;9.18;;;;;;;3.52;71.99;101090.69;2189836;79;28696;-62
2021/10/25 06:42:58;;;;;;;22.10;9.15;;;;;;;3.84;71.52;101081.59;2200521;80;31890;-61
2021/10/25 06:46:00;;;;;;;22.25;8.83;;;;;;;4.17;71.13;101091.00;2197716;80;34196;-62
2021/10/25 06:49:02;;;;;;;20.30;10.00;;;;;;;4.44;70.90;101089.39;2198494;80;29936;-64
2021/10/25 06:52:05;;;;;;;26.97;10.30;;;;;;;4.59;70.19;101075.95;2200143;80;28064;-65
2021/10/25 06:55:08;;;;;;;26.37;11.90;;;;;;;4.69;69.91;101078.90;2209709;80;29988;-65
2021/10/25 06:58:11;;;;;;;19.77;10.03;;;;;;;4.79;69.96;101078.80;2210479;80;31038;-68
2021/10/25 07:01:13;;;;;;;19.82;8.53;;;;;;;4.91;69.93;101085.27;2186093;80;33766;-66
2021/10/25 07:04:16;;;;;;;18.42;9.73;;;;;;;5.10;69.48;101073.92;2208384;80;30551;-66
2021/10/25 07:07:20;;;;;;;20.08;9.55;;;;;;;5.51;69.60;101083.50;2206684;79;27654;-66
2021/10/25 07:10:21;;;;;;;24.20;9.38;;;;;;;6.03;69.04;101079.12;2211053;80;29951;-68
2021/10/25 07:13:25;;;;;;;24.07;9.98;;;;;;;6.57;67.59;101073.19;2210907;80;32269;-67
2021/10/25 07:16:36;;;;;;;20.43;10.43;;;;;;;7.08;67.89;101076.55;2213426;79;34069;-71
2021/10/25 07:19:48;;;;;;;28.73;14.23;;;;;;;7.58;66.76;101065.15;2160196;82;29343;-63
2021/10/25 07:23:08;;;;;;;20.10;11.20;;;;;;;8.04;66.49;101079.10;2176372;79;33396;-60
2021/10/25 08:03:00;;;;;;;14.47;8.18;;;;;;;11.92;58.21;101046.17;2063370;85;31434;-71
2021/10/25 08:12:05;;;;;;;13.05;7.25;;;;;;;11.99;57.61;101041.84;1984084;89;27824;-63
2021/10/25 08:15:08;;;;;;;15.00;5.87;;;;;;;12.00;57.14;101048.08;1984517;88;29045;-67
2021/10/25 08:21:37;;;;;;;17.32;7.00;;;;;;;11.76;57.41;101045.95;1959019;90;32994;-65
2021/10/25 08:24:43;;;;;;;16.02;8.15;;;;;;;11.53;55.49;101043.78;1896376;90;29751;-69
2021/10/25 08:27:45;;;;;;;20.43;8.05;;;;;;;11.39;57.06;101034.95;1897906;92;28151;-63
2021/10/25 08:30:48;;;;;;;16.15;6.28;;;;;;;11.38;57.61;101042.14;1896093;93;28854;-71
2021/10/25 08:34:27;;;;;;;12.73;5.28;;;;;;;11.38;56.59;101031.41;1949338;91;32299;-61
2021/10/25 08:40:11;;;;;;;11.53;4.37;;;;;;;11.42;56.47;101017.88;2044381;87;29335;-70
2021/10/25 08:43:13;;;;;;;13.13;5.97;;;;;;;11.44;55.50;101019.55;2044303;87;27835;-64
2021/10/25 08:46:15;;;;;;;12.43;4.78;;;;;;;11.47;55.27;101019.87;1990351;87;29261;-71
2021/10/25 08:49:18;;;;;;;10.13;4.83;;;;;;;11.50;54.86;101013.05;1996242;87;31395;-68
2021/10/25 08:52:23;;;;;;;16.62;7.00;;;;;;;11.58;55.68;101016.30;2065808;84;33110;-68
2021/10/25 08:55:25;;;;;;;13.88;5.87;;;;;;;11.65;55.09;101012.87;2142233;82;29342;-72
2021/10/25 08:58:27;;;;;;;11.80;5.72;;;;;;;11.70;54.87;101011.73;2146000;83;27661;-71
2021/10/25 09:01:34;;;;;;;8.23;4.70;;;;;;;11.80;54.03;101017.59;2147330;82;29240;-66
2021/10/25 09:04:36;;;;;;;10.98;4.35;;;;;;;11.84;54.58;101012.95;2164576;82;31184;-62
2021/10/25 09:08:00;;;;;;;36.88;6.28;;;;;;;11.89;53.49;101006.91;2165147;82;33774;-68
2021/10/25 09:11:02;;;;;;;10.30;4.35;;;;;;;11.99;53.56;101009.63;2165004;82;29370;-67
2021/10/25 09:14:14;;;;;;;6.70;3.58;;;;;;;12.11;52.99;101011.34;2165110;82;27804;-71
2021/10/25 09:17:16;;;;;;;12.80;4.40;;;;;;;12.17;52.52;101013.77;2166436;81;29731;-71
2021/10/25 09:20:18;;;;;;;7.65;3.67;;;;;;;12.24;52.14;101014.37;2179042;81;31056;-70
2021/10/25 09:23:24;;;;;;;7.03;3.70;;;;;;;12.31;52.26;101008.64;2178973;81;33863;-73
2021/10/25 09:26:30;;;;;;;10.13;4.37;;;;;;;12.38;52.08;101003.86;2173551;81;29324;-71
2021/10/25 09:29:32;;;;;;;10.58;3.62;;;;;;;12.46;51.96;101000.81;2171126;81;27710;-75
2021/10/25 09:32:34;;;;;;;7.60;3.87;;;;;;;12.54;51.67;101002.69;2179288;81;29522;-69
2021/10/25 09:35:43;;;;;;;6.72;3.75;;;;;;;12.60;50.94;100998.84;2178938;81;31969;-65
2021/10/25 09:51:57;;;;;;;7.28;3.05;;;;;;;12.85;48.79;100990.94;2179062;81;31408;-69
2021/10/25 09:55:04;;;;;;;11.10;4.28;;;;;;;12.87;48.93;100991.28;2166383;81;34139;-70
2021/10/25 09:58:16;;;;;;;6.97;3.52;;;;;;;12.94;48.30;100982.44;2163347;82;29385;-66
2021/10/25 10:01:11;;;;;;;11.33;3.22;;;;;;;12.98;49.21;100980.47;2165016;81;27673;-62
2021/10/25 10:04:13;;;;;;;6.50;3.10;;;;;;;13.05;48.57;100984.12;2151947;80;29018;-65
2021/10/25 10:07:16;;;;;;;14.58;4.12;;;;;;;13.12;48.01;100982.48;2123780;83;32295;-65
2021/10/25 10:10:22;;;;;;;5.37;3.02;;;;;;;13.15;47.95;100983.69;2117093;83;33909;-63
2021/10/25 10:13:26;;;;;;;8.05;3.22;;;;;;;13.17;47.87;100984.45;2117425;83;29104;-61
2021/10/25 10:16:29;;;;;;;7.08;3.17;;;;;;;13.19;47.92;100981.22;2117280;84;27687;-62
2021/10/25 10:19:31;;;;;;;5.97;2.95;;;;;;;13.21;47.64;100972.59;2117333;84;29983;-61
2021/10/25 10:22:35;;;;;;;10.25;3.25;;;;;;;13.21;46.55;100976.64;2117422;84;31391;-61
2021/10/25 10:25:50;;;;;;;11.00;3.37;;;;;;;13.20;47.12;100966.82;2117694;84;34118;-61
2021/10/25 10:28:53;;;;;;;8.38;3.20;;;;;;;13.23;47.34;100966.67;2124775;82;29692;-61
2021/10/25 10:32:01;;;;;;;5.20;2.70;;;;;;;13.21;47.28;100956.45;2141866;82;27737;-63
2021/10/25 10:35:08;;;;;;;7.55;3.25;;;;;;;13.24;47.13;100957.66;2116903;83;28887;-63
2021/10/25 10:38:09;;;;;;;6.83;3.13;;;;;;;13.24;46.61;100953.62;2117442;83;31013;-61
2021/10/25 10:41:13;;;;;;;12.60;7.58;;;;;;;13.25;46.02;100954.02;2117335;84;33427;-63
2021/10/25 10:44:18;;;;;;;9.20;3.55;;;;;;;13.24;46.28;100954.11;2117641;84;29313;-61
2021/10/25 10:47:20;;;;;;;9.58;3.60;;;;;;;13.24;46.36;100950.93;2117323;83;27615;-61
2021/10/25 10:50:36;;;;;;;6.92;3.20;;;;;;;13.25;45.97;100945.95;2117386;84;28641;-65
2021/10/25 10:53:41;;;;;;;8.23;4.45;;;;;;;13.27;45.86;100933.29;2116990;83;32370;-62
2021/10/25 10:56:52;;;;;;;9.10;3.85;;;;;;;13.27;45.72;100925.22;2141050;82;33354;-65
2021/10/25 10:59:50;;;;;;;8.75;3.33;;;;;;;13.32;46.12;100923.62;2159101;81;30562;-60
2021/10/25 11:03:02;;;;;;;6.15;2.62;;;;;;;13.36;45.71;100918.00;2175101;79;27715;-61
2021/10/25 11:06:19;;;;;;;8.10;2.50;;;;;;;13.42;44.74;100922.72;2201739;80;28693;-62
2021/10/25 11:09:21;;;;;;;4.80;2.40;;;;;;;13.51;43.83;100919.08;2203940;80;32093;-61
2021/10/25 11:12:24;;;;;;;4.15;2.40;;;;;;;13.59;43.24;100913.75;2203508;80;33399;-61
2021/10/25 11:15:34;;;;;;;4.90;1.90;;;;;;;13.63;42.89;100912.19;2175387;80;30176;-61
2021/10/25 11:18:32;;;;;;;7.37;3.05;;;;;;;13.68;43.01;100916.83;2203266;79;27645;-61
2021/10/25 11:21:45;;;;;;;9.18;3.52;;;;;;;13.74;41.90;100910.73;2203985;80;33197;-61
2021/10/25 11:24:55;;;;;;;6.83;3.47;;;;;;;13.79;42.71;100901.95;2201845;79;32241;-61
2021/10/25 11:27:57;;;;;;;7.35;2.92;;;;;;;13.80;42.48;100897.81;2170936;82;33463;-63
2021/10/25 11:31:03;;;;;;;12.47;6.60;;;;;;;13.85;42.49;100900.74;2160213;82;30183;-62
2021/10/25 11:34:24;;;;;;;6.22;2.67;;;;;;;13.87;42.16;100895.66;2158221;82;27651;-62
2021/10/25 11:37:27;;;;;;;6.12;2.40;;;;;;;13.89;41.87;100896.45;2166749;82;29962;-61
2021/10/25 11:40:29;;;;;;;3.87;1.82;;;;;;;13.91;42.13;100899.93;2168939;82;32039;-62
2021/10/25 11:43:31;;;;;;;4.62;2.30;;;;;;;13.92;40.71;100892.25;2168938;82;34306;-61
2021/10/25 11:46:33;;;;;;;7.30;2.83;;;;;;;13.94;40.61;100893.50;2168973;82;30521;-63
2021/10/25 11:49:36;;;;;;;3.67;2.00;;;;;;;13.95;40.49;100879.97;2169009;82;27697;-62
2021/10/25 11:52:54;;;;;;;11.80;2.67;;;;;;;13.95;40.46;100878.62;2159638;82;29890;-61
2021/10/25 11:55:56;;;;;;;3.98;2.50;;;;;;;13.98;40.68;100881.61;2158261;82;32291;-61
2021/10/25 11:58:59;;;;;;;6.30;2.80;;;;;;;14.00;40.48;100879.70;2168904;82;34301;-61
2021/10/25 12:02:12;;;;;;;6.58;2.67;;;;;;;14.01;39.91;100877.86;2161458;82;30260;-61
2021/10/25 12:05:24;;;;;;;10.48;2.67;;;;;;;14.04;39.74;100875.01;2155665;82;27831;-61
2021/10/25 12:08:26;;;;;;;10.65;2.98;;;;;;;14.07;40.32;100878.39;2158600;82;28902;-62
2021/10/25 12:12:02;;;;;;;8.20;3.22;;;;;;;14.08;40.09;100865.31;2168916;82;31067;-62
2021/10/25 12:14:59;;;;;;;13.30;3.58;;;;;;;14.10;40.35;100875.53;2166266;81;34174;-62
2021/10/25 12:18:04;;;;;;;7.97;3.10;;;;;;;14.08;38.97;100873.89;2199876;80;29317;-62
2021/10/25 12:21:12;;;;;;;7.87;2.50;;;;;;;14.05;40.00;100870.91;2198370;81;27764;-62
2021/10/25 12:24:15;;;;;;;23.65;12.35;;;;;;;14.05;39.51;100878.98;2200094;80;28057;-62
2021/10/25 12:27:23;;;;;;;23.40;9.85;;;;;;;14.07;39.71;100870.31;2201287;80;31889;-63
2021/10/25 12:30:27;;;;;;;11.03;3.33;;;;;;;14.12;39.61;100867.39;2203420;80;33565;-64
2021/10/25 12:33:29;;;;;;;6.80;3.05;;;;;;;14.17;39.94;100863.08;2203765;80;29373;-61
2021/10/25 12:36:37;;;;;;;5.95;2.25;;;;;;;14.22;39.57;100852.44;2203801;80;27639;-61
2021/10/25 12:39:39;;;;;;;14.47;6.58;;;;;;;14.26;39.70;100850.43;2202510;80;29426;-63
2021/10/25 12:42:42;;;;;;;16.95;8.13;;;;;;;14.29;39.61;100855.65;2201239;80;32257;-63
2021/10/25 12:46:06;;;;;;;11.83;4.33;;;;;;;14.35;39.67;100849.04;2201637;80;33672;-64
2021/10/25 12:49:18;;;;;;;25.65;6.78;;;;;;;14.37;39.88;100853.41;2201292;80;27630;-64
2021/10/25 12:52:23;;;;;;;13.72;6.53;;;;;;;14.37;39.76;100842.62;2201894;80;27688;-61
2021/10/25 12:55:26;;;;;;;29.77;5.37;;;;;;;14.38;39.88;100847.06;2202918;80;28628;-63
2021/10/25 12:58:29;;;;;;;10.10;4.42;;;;;;;14.39;39.61;100842.06;2203649;80;31730;-62
2021/10/25 13:01:34;;;;;;;10.20;5.20;;;;;;;14.40;39.81;100840.22;2174996;80;33120;-62
2021/10/25 13:04:39;;;;;;;11.68;4.87;;;;;;;14.42;39.71;100838.31;2165449;81;29504;-60
2021/10/25 13:07:53;;;;;;;9.77;4.90;;;;;;;14.46;39.59;100828.22;2161731;82;27752;-61
2021/10/25 13:10:57;;;;;;;8.88;4.10;;;;;;;14.53;39.90;100825.56;2161066;82;29549;-62
2021/10/25 13:13:59;;;;;;;10.63;4.70;;;;;;;14.58;39.74;100815.36;2162502;82;31862;-63
2021/10/25 13:17:01;;;;;;;5.72;3.08;;;;;;;14.66;39.88;100822.55;2161870;82;34169;-61
2021/10/25 13:20:06;;;;;;;11.85;4.40;;;;;;;14.68;39.64;100815.27;2160512;82;30280;-61
2021/10/25 13:23:11;;;;;;;153.72;11.68;;;;;;;14.69;39.70;100812.96;2161158;82;27688;-62
2021/10/25 13:26:14;;;;;;;52.00;7.87;;;;;;;14.68;39.58;100815.73;2160790;82;28632;-63
2021/10/25 13:29:16;;;;;;;11.60;5.08;;;;;;;14.59;39.82;100811.25;2160919;82;31198;-62
2021/10/25 13:32:21;;;;;;;16.45;4.95;;;;;;;14.55;39.72;100810.17;2160476;82;34286;-62
2021/10/25 13:35:22;;;;;;;8.97;3.80;;;;;;;14.49;39.89;100801.08;2160651;82;29308;-61
2021/10/25 13:38:24;;;;;;;9.60;3.83;;;;;;;14.46;39.83;100806.19;2161922;82;27744;-61
2021/10/25 13:41:26;;;;;;;7.92;3.22;;;;;;;14.44;39.97;100807.60;2162435;82;29886;-61
2021/10/25 13:44:29;;;;;;;9.28;5.00;;;;;;;14.40;39.81;100807.38;2162448;82;32208;-61
2021/10/25 13:47:32;;;;;;;6.10;4.10;;;;;;;14.38;39.56;100804.39;2162774;82;34099;-62
2021/10/25 13:50:35;;;;;;;10.60;4.37;;;;;;;14.37;39.62;100802.66;2162966;82;29349;-64
2021/10/25 13:53:37;;;;;;;8.65;3.95;;;;;;;14.35;39.76;100797.83;2161110;82;27740;-62
2021/10/25 13:56:39;;;;;;;9.55;5.50;;;;;;;14.35;40.00;100797.83;2160674;82;29895;-62
2021/10/25 13:59:42;;;;;;;10.08;3.52;;;;;;;14.34;39.77;100799.67;2160577;82;31733;-62
2021/10/25 14:02:45;;;;;;;7.65;4.25;;;;;;;14.33;39.62;100801.97;2160609;82;34325;-61
2021/10/25 14:05:48;;;;;;;9.55;4.78;;;;;;;14.31;40.05;100803.03;2160641;82;30349;-61
2021/10/25 14:08:50;;;;;;;7.92;4.85;;;;;;;14.28;40.10;100804.94;2206285;80;28006;-64
2021/10/25 14:11:57;;;;;;;11.53;5.95;;;;;;;14.25;40.30;100802.41;2211139;80;28697;-62
2021/10/25 14:15:08;;;;;;;14.68;5.78;;;;;;;14.23;40.12;100804.81;2211946;80;31878;-63
2021/10/25 14:18:04;;;;;;;10.35;5.08;;;;;;;14.17;40.56;100807.35;2212743;79;32934;-62
2021/10/25 14:21:07;;;;;;;11.35;5.62;;;;;;;14.09;40.52;100801.05;2213461;80;29338;-62
2021/10/25 14:24:10;;;;;;;13.28;6.05;;;;;;;14.05;40.65;100808.94;2213267;80;27728;-62
2021/10/25 14:27:13;;;;;;;12.20;5.65;;;;;;;13.98;40.62;100811.08;2211327;80;29398;-64
2021/10/25 14:30:16;;;;;;;11.05;5.28;;;;;;;13.92;40.88;100806.52;2211335;80;31160;-63
2021/10/25 14:33:19;;;;;;;14.05;6.45;;;;;;;13.81;40.88;100806.64;2211006;80;33811;-62
2021/10/25 14:36:22;;;;;;;21.85;8.33;;;;;;;13.72;40.78;100807.63;2212542;80;30487;-62
2021/10/25 14:39:33;;;;;;;15.58;6.70;;;;;;;13.61;40.94;100804.16;2213441;80;27735;-63
2021/10/25 14:42:32;;;;;;;13.55;6.12;;;;;;;13.47;41.05;100801.75;2213316;79;29593;-62
2021/10/25 14:45:35;;;;;;;15.43;7.03;;;;;;;13.38;41.09;100792.80;2212253;80;32216;-63
2021/10/25 14:48:49;;;;;;;22.30;9.98;;;;;;;13.26;41.28;100784.90;2211330;80;33019;-62
2021/10/25 14:55:19;;;;;;;12.33;5.83;;;;;;;13.05;41.50;100774.31;2211597;80;28155;-62
2021/10/25 14:58:17;;;;;;;19.87;9.80;;;;;;;12.91;41.51;100775.03;2182291;80;30008;-62
2021/10/25 15:01:20;;;;;;;22.42;10.00;;;;;;;12.81;41.66;100786.36;2212016;80;31875;-62
2021/10/25 15:04:23;;;;;;;16.05;7.60;;;;;;;12.70;41.88;100781.04;2206004;79;33572;-62
2021/10/25 15:07:26;;;;;;;22.67;8.60;;;;;;;12.58;41.93;100777.64;2197689;79;30254;-61
2021/10/25 15:10:29;;;;;;;26.97;11.73;;;;;;;12.47;42.11;100774.14;2198120;80;27691;-61
2021/10/25 15:13:30;;;;;;;34.25;13.83;;;;;;;12.34;42.27;100777.91;2198809;80;29457;-63
2021/10/25 15:16:32;;;;;;;27.85;11.05;;;;;;;12.22;42.37;100777.17;2200177;80;31700;-62
2021/10/25 15:19:38;;;;;;;22.42;10.15;;;;;;;12.10;42.63;100776.83;2199549;80;34159;-63
2021/10/25 15:22:40;;;;;;;21.87;8.88;;;;;;;11.99;42.68;100772.45;2199114;80;29989;-63
2021/10/25 15:25:44;;;;;;;16.12;7.75;;;;;;;11.89;42.75;100777.81;2198061;81;27696;-61
2021/10/25 15:28:46;;;;;;;21.55;9.53;;;;;;;11.78;42.80;100776.98;2198143;81;28786;-62
2021/10/25 15:31:48;;;;;;;23.40;9.00;;;;;;;11.65;42.99;100776.70;2198512;80;32372;-62
2021/10/25 15:34:55;;;;;;;14.40;5.05;;;;;;;11.51;43.08;100775.50;2199552;80;34325;-61
2021/10/25 15:37:57;;;;;;;13.60;4.65;;;;;;;11.37;43.19;100766.77;2200114;80;29334;-61
2021/10/25 15:41:00;;;;;;;12.95;4.40;;;;;;;11.22;43.33;100768.31;2200247;80;27667;-61